createdAt,value
2018-07-17T10:24:24.402Z,100454.88
2018-07-17T10:26:53.556Z,100447.15
2018-07-17T10:29:22.730Z,100444.53
2018-07-17T10:31:51.890Z,100443.12
2018-07-17T10:34:21.161Z,100444.27
2018-07-17T10:36:50.280Z,100442.20
2018-07-17T10:39:19.466Z,100437.29
2018-07-17T10:41:48.579Z,100431.45
2018-07-17T10:44:17.744Z,100432.83
2018-07-17T10:46:46.958Z,100431.00
2018-07-17T10:49:16.061Z,100434.67
2018-07-17T10:51:45.336Z,100424.62
2018-07-17T10:54:14.453Z,100423.34
2018-07-17T10:56:43.633Z,100421.02
2018-07-17T10:59:12.853Z,100412.36
2018-07-17T11:01:42.031Z,100422.11
2018-07-17T11:04:11.184Z,100421.20
2018-07-17T11:06:40.343Z,100412.36
2018-07-17T11:09:09.458Z,100421.48
2018-07-17T11:11:38.571Z,100407.97
2018-07-17T11:14:08.225Z,100420.44
2018-07-17T11:16:37.594Z,100412.33
2018-07-17T11:19:06.913Z,100418.69
2018-07-17T11:21:36.092Z,100419.12
2018-07-17T11:24:05.536Z,100411.00
2018-07-17T11:26:35.671Z,100412.44
2018-07-17T11:29:04.864Z,100414.41
2018-07-17T11:31:33.985Z,100406.55
2018-07-17T11:34:03.129Z,100411.41
2018-07-17T11:36:32.599Z,100411.47
2018-07-17T11:39:01.747Z,100402.02
2018-07-17T11:41:30.894Z,100400.24
2018-07-17T11:44:00.052Z,100394.55
2018-07-17T11:46:29.238Z,100396.11
2018-07-17T11:48:58.430Z,100406.16
2018-07-17T11:51:27.642Z,100396.09
2018-07-17T11:53:56.807Z,100393.89
2018-07-17T11:56:26.267Z,100391.31
2018-07-17T11:58:55.501Z,100394.93
2018-07-17T12:01:24.747Z,100392.20
2018-07-17T12:03:53.898Z,100389.88
2018-07-17T12:06:23.043Z,100394.17
2018-07-17T12:08:52.262Z,100382.01
2018-07-17T12:11:21.395Z,100383.84
2018-07-17T12:13:50.507Z,100378.84
2018-07-17T12:16:21.038Z,100376.77
2018-07-17T12:18:51.506Z,100378.74
2018-07-17T12:21:20.636Z,100374.31
2018-07-17T12:23:49.819Z,100374.80
2018-07-17T12:26:18.948Z,100376.78
2018-07-17T12:28:48.112Z,100383.63
2018-07-17T12:31:17.286Z,100383.65
2018-07-17T12:33:46.827Z,100382.05
2018-07-17T12:36:16.063Z,100369.91
2018-07-17T12:38:45.989Z,100375.54
2018-07-17T12:41:15.508Z,100377.26
2018-07-17T12:43:44.683Z,100374.21
2018-07-17T12:46:13.984Z,100367.94
2018-07-17T12:48:43.138Z,100371.97
2018-07-17T12:51:12.511Z,100375.73
2018-07-17T12:53:41.746Z,100371.89
2018-07-17T12:56:10.886Z,100366.02
2018-07-17T12:58:40.039Z,100362.97
2018-07-17T13:01:09.266Z,100370.22
2018-07-17T13:03:38.522Z,100361.16
2018-07-17T13:06:07.729Z,100362.48
2018-07-17T13:08:36.887Z,100359.39
2018-07-17T13:11:06.114Z,100361.34
2018-07-17T13:13:35.254Z,100361.23
2018-07-17T13:16:04.440Z,100356.23
2018-07-17T13:18:33.570Z,100348.56
2018-07-17T13:21:02.813Z,100346.92
2018-07-17T13:23:31.944Z,100344.36
2018-07-17T13:26:01.933Z,100335.03
2018-07-17T13:28:31.100Z,100350.84
2018-07-17T13:31:00.237Z,100344.94
2018-07-17T13:33:29.380Z,100344.95
2018-07-17T13:35:58.563Z,100342.13
2018-07-17T13:38:27.786Z,100334.89
2018-07-17T13:40:56.903Z,100334.52
2018-07-17T13:43:26.088Z,100336.14
2018-07-17T13:45:55.268Z,100332.30
2018-07-17T13:48:24.462Z,100339.65
2018-07-17T13:50:53.665Z,100332.33
2018-07-17T13:53:22.801Z,100328.52
2018-07-17T13:55:51.963Z,100327.91
2018-07-17T13:58:21.342Z,100334.26
2018-07-17T14:00:50.627Z,100330.05
2018-07-17T14:03:19.846Z,100324.65
2018-07-17T14:05:49.029Z,100321.45
2018-07-17T14:08:18.415Z,100318.14
2018-07-17T14:10:47.605Z,100314.16
2018-07-17T14:13:16.782Z,100321.27
2018-07-17T14:15:45.926Z,100315.84
2018-07-17T14:18:15.106Z,100313.03
2018-07-17T14:20:44.294Z,100317.70
2018-07-17T14:23:13.471Z,100309.72
2018-07-17T14:25:42.686Z,100308.13
2018-07-17T14:28:11.831Z,100310.59
2018-07-17T14:30:41.030Z,100315.50
2018-07-17T14:33:10.284Z,100325.44
2018-07-17T14:35:39.530Z,100312.44
2018-07-17T14:38:08.673Z,100313.15
2018-07-17T14:40:37.859Z,100322.64
2018-07-17T14:43:07.217Z,100327.43
2018-07-17T14:45:36.515Z,100319.89
2018-07-17T14:48:06.203Z,100336.09
2018-07-17T14:50:35.717Z,100317.98
2018-07-17T14:53:04.961Z,100323.38
2018-07-17T14:55:34.245Z,100321.41
2018-07-17T14:58:03.418Z,100320.06
2018-07-17T15:00:32.581Z,100313.08
2018-07-17T15:03:01.791Z,100320.17
2018-07-17T15:05:34.064Z,100313.57
2018-07-17T15:08:03.197Z,100311.44
2018-07-17T15:10:32.666Z,100315.48
2018-07-17T15:13:01.803Z,100312.80
2018-07-17T15:15:31.126Z,100313.32
2018-07-17T15:18:00.269Z,100312.95
2018-07-17T15:20:29.439Z,100303.26
2018-07-17T15:22:58.591Z,100303.75
2018-07-17T15:25:27.804Z,100304.59
2018-07-17T15:27:57.012Z,100300.80
2018-07-17T15:30:26.093Z,100308.53
2018-07-17T15:32:55.234Z,100323.88
2018-07-17T15:35:24.416Z,100331.29
2018-07-17T15:37:53.612Z,100318.91
2018-07-17T15:40:23.039Z,100316.78
2018-07-17T15:42:52.224Z,100315.32
2018-07-17T15:45:21.433Z,100315.25
2018-07-17T15:47:50.570Z,100319.37
2018-07-17T15:50:19.776Z,100329.25
2018-07-17T15:52:49.096Z,100331.42
2018-07-17T15:55:18.642Z,100325.17
2018-07-17T15:57:47.771Z,100331.63
2018-07-17T16:00:16.959Z,100330.16
2018-07-17T16:02:46.147Z,100327.51
2018-07-17T16:05:15.284Z,100331.06
2018-07-17T16:07:44.434Z,100335.36
2018-07-17T16:10:13.704Z,100336.71
2018-07-17T16:12:42.830Z,100325.67
2018-07-17T16:15:11.987Z,100342.73
2018-07-17T16:17:41.160Z,100339.06
2018-07-17T16:20:10.443Z,100340.14
2018-07-17T16:22:39.735Z,100348.80
2018-07-17T16:25:08.878Z,100356.97
2018-07-17T16:27:38.028Z,100360.79
2018-07-17T16:30:07.963Z,100358.10
2018-07-17T16:32:37.086Z,100374.14
2018-07-17T16:35:06.231Z,100370.77
2018-07-17T16:37:35.394Z,100354.25
2018-07-17T16:40:04.638Z,100369.80
2018-07-17T16:42:33.767Z,100372.15
2018-07-17T16:45:02.894Z,100361.80
2018-07-17T16:47:32.150Z,100364.52
2018-07-17T16:50:01.278Z,100388.53
2018-07-17T16:52:30.402Z,100388.78
2018-07-17T16:54:59.530Z,100380.66
2018-07-17T16:57:28.682Z,100382.22
2018-07-17T16:59:57.633Z,100387.97
2018-07-17T17:02:26.788Z,100391.88
2018-07-17T17:04:55.917Z,100386.03
2018-07-17T17:07:25.043Z,100386.42
2018-07-17T17:09:54.246Z,100385.25
2018-07-17T17:12:23.635Z,100379.23
2018-07-17T17:14:52.775Z,100394.06
2018-07-17T17:17:21.933Z,100388.19
2018-07-17T17:19:51.057Z,100387.02
2018-07-17T17:22:20.215Z,100385.21
2018-07-17T17:24:49.541Z,100388.74
2018-07-17T17:27:24.937Z,100388.62
2018-07-17T17:29:54.184Z,100385.03
2018-07-17T17:32:23.385Z,100395.47
2018-07-17T17:34:52.899Z,100392.66
2018-07-17T17:37:22.091Z,100396.93
2018-07-17T17:39:51.367Z,100399.56
2018-07-17T17:42:20.512Z,100401.70
2018-07-17T17:44:50.928Z,100391.77
2018-07-17T17:47:20.913Z,100389.08
2018-07-17T17:49:50.237Z,100392.90
2018-07-17T17:52:19.584Z,100387.55
2018-07-17T17:54:48.857Z,100390.59
2018-07-17T17:57:18.792Z,100391.40
2018-07-17T17:59:48.231Z,100390.34
2018-07-17T18:02:17.578Z,100395.30
2018-07-17T18:04:47.865Z,100399.23
2018-07-17T18:07:17.065Z,100399.01
2018-07-17T18:09:46.234Z,100402.57
2018-07-17T18:12:15.525Z,100397.27
2018-07-17T18:14:44.719Z,100398.73
2018-07-17T18:17:14.129Z,100398.24
2018-07-17T18:19:43.571Z,100401.74
2018-07-17T18:22:12.784Z,100396.80
2018-07-17T18:24:42.097Z,100402.09
2018-07-17T18:27:11.349Z,100408.15
2018-07-17T18:29:42.041Z,100404.53
2018-07-17T18:32:11.297Z,100404.56
2018-07-17T18:34:40.433Z,100407.73
2018-07-17T18:37:09.766Z,100404.10
2018-07-17T18:39:39.291Z,100407.23
2018-07-17T18:42:08.609Z,100418.29
2018-07-17T18:44:38.374Z,100414.38
2018-07-17T18:47:08.806Z,100405.72
2018-07-17T18:49:38.424Z,100418.85
2018-07-17T18:52:07.931Z,100416.80
2018-07-17T18:54:37.268Z,100414.34
2018-07-17T18:57:06.424Z,100419.44
2018-07-17T18:59:35.746Z,100417.48
2018-07-17T19:02:06.190Z,100420.30
2018-07-17T19:04:35.530Z,100414.72
2018-07-17T19:07:06.189Z,100410.86
2018-07-17T19:09:35.363Z,100415.58
2018-07-17T19:12:04.894Z,100418.53
2018-07-17T19:14:34.132Z,100419.21
2018-07-17T19:17:04.374Z,100419.82
2018-07-17T19:19:33.665Z,100415.09
2018-07-17T19:22:03.922Z,100413.51
2018-07-17T19:24:33.256Z,100417.65
2018-07-17T19:27:02.549Z,100416.09
2018-07-17T19:29:32.157Z,100424.23
2018-07-17T19:32:01.492Z,100420.37
2018-07-17T19:34:31.274Z,100416.83
2018-07-17T19:37:01.376Z,100423.10
2018-07-17T19:39:30.766Z,100427.64
2018-07-17T19:42:00.159Z,100430.41
2018-07-17T19:44:29.482Z,100433.61
2018-07-17T19:46:59.068Z,100429.28
2018-07-17T19:49:28.390Z,100430.68
2018-07-17T19:51:57.654Z,100430.35
2018-07-17T19:54:27.088Z,100429.55
2018-07-17T19:56:56.310Z,100432.28
2018-07-17T19:59:25.579Z,100436.82
2018-07-17T20:01:54.958Z,100435.19
2018-07-17T20:04:24.112Z,100440.13
2018-07-17T20:06:54.505Z,100445.52
2018-07-17T20:09:24.361Z,100448.72
2018-07-17T20:11:53.975Z,100454.66
2018-07-17T20:14:24.401Z,100449.05
2018-07-17T20:16:53.682Z,100449.28
2018-07-17T20:19:22.998Z,100451.68
2018-07-17T20:21:52.323Z,100449.12
2018-07-17T20:24:21.584Z,100455.44
2018-07-17T20:26:50.849Z,100455.61
2018-07-17T20:29:20.304Z,100453.94
2018-07-17T20:31:49.551Z,100455.80
2018-07-17T20:34:22.276Z,100456.80
2018-07-17T20:36:51.457Z,100453.39
2018-07-17T20:39:20.714Z,100450.89
2018-07-17T20:41:49.939Z,100450.55
2018-07-17T20:44:21.035Z,100455.55
2018-07-17T20:46:50.306Z,100458.74
2018-07-17T20:49:19.431Z,100452.67
2018-07-17T20:51:48.380Z,100455.87
2018-07-17T20:54:17.635Z,100453.42
2018-07-17T20:56:46.934Z,100453.09
2018-07-17T20:59:16.079Z,100454.08
2018-07-17T21:01:45.262Z,100459.06
2018-07-17T21:04:14.472Z,100458.33
2018-07-17T21:06:45.074Z,100454.89
2018-07-17T21:09:15.119Z,100458.55
2018-07-17T21:11:45.586Z,100450.68
2018-07-17T21:14:14.758Z,100448.48
2018-07-17T21:16:44.357Z,100453.93
2018-07-17T21:19:13.770Z,100440.74
2018-07-17T21:21:43.118Z,100453.59
2018-07-17T21:24:12.391Z,100451.39
2018-07-17T21:26:41.700Z,100449.59
2018-07-17T21:29:11.695Z,100450.06
2018-07-17T21:31:40.834Z,100449.59
2018-07-17T21:34:10.628Z,100448.83
2018-07-17T21:36:39.860Z,100451.09
2018-07-17T21:39:10.609Z,100456.47
2018-07-17T21:41:40.639Z,100456.12
2018-07-17T21:44:10.730Z,100450.46
2018-07-17T21:46:40.368Z,100453.59
2018-07-17T21:49:09.561Z,100451.80
2018-07-17T21:51:38.814Z,100452.72
2018-07-17T21:54:08.121Z,100455.38
2018-07-17T21:56:37.432Z,100454.55
2018-07-17T21:59:06.932Z,100457.20
2018-07-17T22:01:36.199Z,100458.59
2018-07-17T22:04:05.772Z,100458.66
2018-07-17T22:06:35.063Z,100462.66
2018-07-17T22:09:05.987Z,100464.94
2018-07-17T22:11:35.243Z,100469.86
2018-07-17T22:14:05.039Z,100465.00
2018-07-17T22:16:34.480Z,100467.66
2018-07-17T22:19:03.832Z,100469.45
2018-07-17T22:21:33.739Z,100471.25
2018-07-17T22:24:03.053Z,100475.96
2018-07-17T22:26:32.677Z,100479.02
2018-07-17T22:29:02.064Z,100474.97
2018-07-17T22:31:31.202Z,100477.17
2018-07-17T22:34:00.471Z,100476.70
2018-07-17T22:36:29.744Z,100475.38
2018-07-17T22:38:58.974Z,100475.38
2018-07-17T22:41:28.300Z,100470.63
2018-07-17T22:43:57.769Z,100475.96
2018-07-17T22:46:26.993Z,100474.72
2018-07-17T22:48:56.208Z,100475.65
2018-07-17T22:51:25.435Z,100478.38
2018-07-17T22:53:54.659Z,100475.36
2018-07-17T22:56:23.824Z,100479.36
2018-07-17T22:58:54.063Z,100479.36
2018-07-17T23:01:23.255Z,100481.09
2018-07-17T23:03:52.581Z,100475.30
2018-07-17T23:06:22.054Z,100479.30
2018-07-17T23:08:52.264Z,100476.52
2018-07-17T23:11:21.614Z,100481.37
2018-07-17T23:13:50.725Z,100478.77
2018-07-17T23:16:20.464Z,100477.50
2018-07-17T23:18:49.713Z,100477.56
2018-07-17T23:21:19.113Z,100474.37
2018-07-17T23:23:48.284Z,100473.91
2018-07-17T23:26:18.372Z,100471.66
2018-07-17T23:28:47.559Z,100464.94
2018-07-17T23:31:16.958Z,100465.31
2018-07-17T23:33:46.191Z,100468.38
2018-07-17T23:36:15.362Z,100467.51
2018-07-17T23:38:44.543Z,100470.63
2018-07-17T23:41:14.578Z,100472.06
2018-07-17T23:43:43.842Z,100468.13
2018-07-17T23:46:13.296Z,100466.86
2018-07-17T23:48:42.439Z,100464.20
2018-07-17T23:51:11.680Z,100465.53
2018-07-17T23:53:40.794Z,100469.58
2018-07-17T23:56:10.444Z,100464.78
2018-07-17T23:58:39.853Z,100463.10
